sensor_id;sensor_type;location;lat;lon;timestamp;P1;durP1;ratioP1;P2;durP2;ratioP2
11677;SDS011;5895;41.950;24.372;2022-11-14T00:00:54;7.00;;;5.68;;
11677;SDS011;5895;41.950;24.372;2022-11-14T00:03:22;7.15;;;6.40;;
11677;SDS011;5895;41.950;24.372;2022-11-14T00:05:51;6.93;;;6.22;;
11677;SDS011;5895;41.950;24.372;2022-11-14T00:08:19;6.55;;;5.95;;
11677;SDS011;5895;41.950;24.372;2022-11-14T00:10:48;7.95;;;6.07;;
11677;SDS011;5895;41.950;24.372;2022-11-14T00:13:17;7.18;;;6.45;;
11677;SDS011;5895;41.950;24.372;2022-11-14T00:15:47;6.85;;;6.20;;
11677;SDS011;5895;41.950;24.372;2022-11-14T00:18:16;7.00;;;6.40;;
11677;SDS011;5895;41.950;24.372;2022-11-14T00:20:46;7.05;;;6.32;;
11677;SDS011;5895;41.950;24.372;2022-11-14T00:23:15;6.82;;;6.22;;
11677;SDS011;5895;41.950;24.372;2022-11-14T00:25:43;7.05;;;6.30;;
11677;SDS011;5895;41.950;24.372;2022-11-14T00:28:11;7.30;;;6.20;;
11677;SDS011;5895;41.950;24.372;2022-11-14T00:30:38;6.93;;;6.22;;
11677;SDS011;5895;41.950;24.372;2022-11-14T00:33:06;7.35;;;6.65;;
11677;SDS011;5895;41.950;24.372;2022-11-14T00:35:33;7.45;;;6.68;;
11677;SDS011;5895;41.950;24.372;2022-11-14T00:38:01;7.50;;;6.70;;
11677;SDS011;5895;41.950;24.372;2022-11-14T00:40:30;8.32;;;6.72;;
11677;SDS011;5895;41.950;24.372;2022-11-14T00:42:57;6.93;;;6.30;;
11677;SDS011;5895;41.950;24.372;2022-11-14T00:45:25;8.75;;;6.55;;
11677;SDS011;5895;41.950;24.372;2022-11-14T00:47:52;6.40;;;5.80;;
11677;SDS011;5895;41.950;24.372;2022-11-14T00:50:19;7.13;;;6.13;;
11677;SDS011;5895;41.950;24.372;2022-11-14T00:52:47;7.15;;;6.55;;
11677;SDS011;5895;41.950;24.372;2022-11-14T00:55:14;8.27;;;6.10;;
11677;SDS011;5895;41.950;24.372;2022-11-14T00:57:43;7.47;;;6.65;;
11677;SDS011;5895;41.950;24.372;2022-11-14T01:00:11;7.05;;;6.35;;
11677;SDS011;5895;41.950;24.372;2022-11-14T01:02:40;7.18;;;6.47;;
11677;SDS011;5895;41.950;24.372;2022-11-14T01:05:07;6.97;;;6.38;;
11677;SDS011;5895;41.950;24.372;2022-11-14T01:07:35;8.75;;;6.47;;
11677;SDS011;5895;41.950;24.372;2022-11-14T01:10:02;6.78;;;6.07;;
11677;SDS011;5895;41.950;24.372;2022-11-14T01:12:30;6.90;;;6.10;;
11677;SDS011;5895;41.950;24.372;2022-11-14T01:15:00;6.82;;;5.97;;
11677;SDS011;5895;41.950;24.372;2022-11-14T01:17:28;6.55;;;5.65;;
11677;SDS011;5895;41.950;24.372;2022-11-14T01:19:55;6.45;;;5.82;;
11677;SDS011;5895;41.950;24.372;2022-11-14T01:22:22;7.47;;;6.07;;
11677;SDS011;5895;41.950;24.372;2022-11-14T01:24:50;9.13;;;6.85;;
11677;SDS011;5895;41.950;24.372;2022-11-14T01:27:19;7.63;;;6.28;;
11677;SDS011;5895;41.950;24.372;2022-11-14T01:29:47;6.90;;;5.97;;
11677;SDS011;5895;41.950;24.372;2022-11-14T01:32:16;7.45;;;6.38;;
11677;SDS011;5895;41.950;24.372;2022-11-14T01:34:43;6.20;;;5.60;;
11677;SDS011;5895;41.950;24.372;2022-11-14T01:37:12;6.15;;;5.57;;
11677;SDS011;5895;41.950;24.372;2022-11-14T01:39:39;8.02;;;6.07;;
11677;SDS011;5895;41.950;24.372;2022-11-14T01:42:07;6.10;;;5.50;;
11677;SDS011;5895;41.950;24.372;2022-11-14T01:44:40;7.07;;;5.57;;
11677;SDS011;5895;41.950;24.372;2022-11-14T01:47:11;6.40;;;5.80;;
11677;SDS011;5895;41.950;24.372;2022-11-14T01:49:46;6.53;;;5.93;;
11677;SDS011;5895;41.950;24.372;2022-11-14T01:52:16;6.53;;;5.93;;
11677;SDS011;5895;41.950;24.372;2022-11-14T01:54:47;6.60;;;6.00;;
11677;SDS011;5895;41.950;24.372;2022-11-14T01:57:16;7.78;;;5.05;;
11677;SDS011;5895;41.950;24.372;2022-11-14T01:59:46;6.43;;;5.60;;
11677;SDS011;5895;41.950;24.372;2022-11-14T02:02:20;6.20;;;5.68;;
11677;SDS011;5895;41.950;24.372;2022-11-14T02:04:51;6.03;;;5.22;;
11677;SDS011;5895;41.950;24.372;2022-11-14T02:07:21;6.43;;;5.82;;
11677;SDS011;5895;41.950;24.372;2022-11-14T02:09:51;6.38;;;5.43;;
11677;SDS011;5895;41.950;24.372;2022-11-14T02:12:19;6.43;;;4.90;;
11677;SDS011;5895;41.950;24.372;2022-11-14T02:14:49;7.63;;;5.90;;
11677;SDS011;5895;41.950;24.372;2022-11-14T02:17:22;6.38;;;5.78;;
11677;SDS011;5895;41.950;24.372;2022-11-14T02:19:52;6.60;;;5.43;;
11677;SDS011;5895;41.950;24.372;2022-11-14T02:22:23;5.97;;;5.38;;
11677;SDS011;5895;41.950;24.372;2022-11-14T02:24:50;6.10;;;5.50;;
11677;SDS011;5895;41.950;24.372;2022-11-14T02:27:18;6.10;;;5.50;;
11677;SDS011;5895;41.950;24.372;2022-11-14T02:29:45;5.40;;;4.90;;
11677;SDS011;5895;41.950;24.372;2022-11-14T02:32:13;7.22;;;5.82;;
11677;SDS011;5895;41.950;24.372;2022-11-14T02:34:40;6.20;;;5.60;;
11677;SDS011;5895;41.950;24.372;2022-11-14T02:37:08;5.75;;;5.10;;
11677;SDS011;5895;41.950;24.372;2022-11-14T02:39:37;6.10;;;5.50;;
11677;SDS011;5895;41.950;24.372;2022-11-14T02:42:05;6.72;;;6.13;;
11677;SDS011;5895;41.950;24.372;2022-11-14T02:44:32;5.50;;;5.00;;
11677;SDS011;5895;41.950;24.372;2022-11-14T02:46:59;6.07;;;5.50;;
11677;SDS011;5895;41.950;24.372;2022-11-14T02:49:27;5.90;;;5.30;;
11677;SDS011;5895;41.950;24.372;2022-11-14T02:51:54;5.78;;;5.25;;
11677;SDS011;5895;41.950;24.372;2022-11-14T02:54:22;6.88;;;6.18;;
11677;SDS011;5895;41.950;24.372;2022-11-14T02:56:51;7.47;;;5.65;;
11677;SDS011;5895;41.950;24.372;2022-11-14T02:59:18;6.10;;;5.50;;
11677;SDS011;5895;41.950;24.372;2022-11-14T03:01:46;6.55;;;5.82;;
11677;SDS011;5895;41.950;24.372;2022-11-14T03:04:13;6.68;;;5.95;;
11677;SDS011;5895;41.950;24.372;2022-11-14T03:06:40;7.53;;;5.80;;
11677;SDS011;5895;41.950;24.372;2022-11-14T03:09:08;6.03;;;5.35;;
11677;SDS011;5895;41.950;24.372;2022-11-14T03:11:35;6.57;;;5.97;;
11677;SDS011;5895;41.950;24.372;2022-11-14T03:14:05;6.47;;;5.88;;
11677;SDS011;5895;41.950;24.372;2022-11-14T03:16:33;6.63;;;5.85;;
11677;SDS011;5895;41.950;24.372;2022-11-14T03:19:00;5.88;;;5.10;;
11677;SDS011;5895;41.950;24.372;2022-11-14T03:21:28;5.43;;;4.93;;
11677;SDS011;5895;41.950;24.372;2022-11-14T03:23:55;6.30;;;5.70;;
11677;SDS011;5895;41.950;24.372;2022-11-14T03:26:23;5.90;;;5.38;;
11677;SDS011;5895;41.950;24.372;2022-11-14T03:28:50;5.60;;;5.10;;
11677;SDS011;5895;41.950;24.372;2022-11-14T03:31:21;5.50;;;5.00;;
11677;SDS011;5895;41.950;24.372;2022-11-14T03:33:48;6.22;;;5.63;;
11677;SDS011;5895;41.950;24.372;2022-11-14T03:36:16;6.43;;;5.82;;
11677;SDS011;5895;41.950;24.372;2022-11-14T03:38:43;6.35;;;5.75;;
11677;SDS011;5895;41.950;24.372;2022-11-14T03:41:10;7.95;;;5.82;;
11677;SDS011;5895;41.950;24.372;2022-11-14T03:43:38;7.03;;;6.22;;
11677;SDS011;5895;41.950;24.372;2022-11-14T03:46:05;7.07;;;6.38;;
11677;SDS011;5895;41.950;24.372;2022-11-14T03:48:34;6.90;;;6.20;;
11677;SDS011;5895;41.950;24.372;2022-11-14T03:51:02;6.40;;;5.72;;
11677;SDS011;5895;41.950;24.372;2022-11-14T03:53:29;6.88;;;6.25;;
11677;SDS011;5895;41.950;24.372;2022-11-14T03:55:57;6.85;;;6.13;;
11677;SDS011;5895;41.950;24.372;2022-11-14T03:58:24;6.60;;;5.90;;
11677;SDS011;5895;41.950;24.372;2022-11-14T04:00:51;6.82;;;6.13;;
11677;SDS011;5895;41.950;24.372;2022-11-14T04:03:20;6.30;;;5.70;;
11677;SDS011;5895;41.950;24.372;2022-11-14T04:05:49;7.82;;;6.05;;
11677;SDS011;5895;41.950;24.372;2022-11-14T04:08:16;6.85;;;5.90;;
11677;SDS011;5895;41.950;24.372;2022-11-14T04:10:45;6.65;;;5.95;;
11677;SDS011;5895;41.950;24.372;2022-11-14T04:13:13;6.95;;;6.20;;
11677;SDS011;5895;41.950;24.372;2022-11-14T04:15:41;7.72;;;6.13;;
11677;SDS011;5895;41.950;24.372;2022-11-14T04:18:09;6.35;;;5.75;;
11677;SDS011;5895;41.950;24.372;2022-11-14T04:20:36;8.25;;;5.95;;
11677;SDS011;5895;41.950;24.372;2022-11-14T04:23:05;7.15;;;6.20;;
11677;SDS011;5895;41.950;24.372;2022-11-14T04:25:32;6.65;;;6.05;;
11677;SDS011;5895;41.950;24.372;2022-11-14T04:28:00;6.78;;;6.18;;
11677;SDS011;5895;41.950;24.372;2022-11-14T04:30:27;6.65;;;6.05;;
11677;SDS011;5895;41.950;24.372;2022-11-14T04:32:54;7.90;;;6.53;;
11677;SDS011;5895;41.950;24.372;2022-11-14T04:35:22;6.72;;;6.13;;
11677;SDS011;5895;41.950;24.372;2022-11-14T04:37:49;6.15;;;5.53;;
11677;SDS011;5895;41.950;24.372;2022-11-14T04:40:18;6.40;;;5.80;;
11677;SDS011;5895;41.950;24.372;2022-11-14T04:42:47;6.38;;;5.45;;
11677;SDS011;5895;41.950;24.372;2022-11-14T04:45:14;6.47;;;5.85;;
11677;SDS011;5895;41.950;24.372;2022-11-14T04:47:42;6.93;;;5.93;;
11677;SDS011;5895;41.950;24.372;2022-11-14T04:50:09;8.27;;;7.40;;
11677;SDS011;5895;41.950;24.372;2022-11-14T04:52:37;9.15;;;7.43;;
11677;SDS011;5895;41.950;24.372;2022-11-14T04:55:04;8.35;;;6.30;;
11677;SDS011;5895;41.950;24.372;2022-11-14T04:57:33;7.00;;;6.18;;
11677;SDS011;5895;41.950;24.372;2022-11-14T05:00:01;6.57;;;5.97;;
11677;SDS011;5895;41.950;24.372;2022-11-14T05:02:29;6.78;;;5.68;;
11677;SDS011;5895;41.950;24.372;2022-11-14T05:04:57;8.93;;;7.03;;
11677;SDS011;5895;41.950;24.372;2022-11-14T05:07:24;7.20;;;6.28;;
11677;SDS011;5895;41.950;24.372;2022-11-14T05:09:52;5.88;;;5.00;;
11677;SDS011;5895;41.950;24.372;2022-11-14T05:12:19;6.32;;;5.63;;
11677;SDS011;5895;41.950;24.372;2022-11-14T05:14:48;6.85;;;5.85;;
11677;SDS011;5895;41.950;24.372;2022-11-14T05:17:16;10.05;;;8.05;;
11677;SDS011;5895;41.950;24.372;2022-11-14T05:19:43;27.08;;;19.58;;
11677;SDS011;5895;41.950;24.372;2022-11-14T05:22:11;12.07;;;9.75;;
11677;SDS011;5895;41.950;24.372;2022-11-14T05:24:38;13.38;;;10.18;;
11677;SDS011;5895;41.950;24.372;2022-11-14T05:27:06;10.10;;;8.15;;
11677;SDS011;5895;41.950;24.372;2022-11-14T05:29:33;6.28;;;5.68;;
11677;SDS011;5895;41.950;24.372;2022-11-14T05:32:02;5.90;;;5.35;;
11677;SDS011;5895;41.950;24.372;2022-11-14T05:34:30;5.22;;;4.45;;
11677;SDS011;5895;41.950;24.372;2022-11-14T05:36:58;5.43;;;4.93;;
11677;SDS011;5895;41.950;24.372;2022-11-14T05:39:25;5.75;;;5.15;;
11677;SDS011;5895;41.950;24.372;2022-11-14T05:41:52;5.30;;;4.80;;
11677;SDS011;5895;41.950;24.372;2022-11-14T05:44:20;5.25;;;4.75;;
11677;SDS011;5895;41.950;24.372;2022-11-14T05:46:47;5.82;;;4.95;;
11677;SDS011;5895;41.950;24.372;2022-11-14T05:49:16;5.68;;;5.18;;
11677;SDS011;5895;41.950;24.372;2022-11-14T05:51:44;5.68;;;5.18;;
11677;SDS011;5895;41.950;24.372;2022-11-14T05:54:11;6.07;;;5.47;;
11677;SDS011;5895;41.950;24.372;2022-11-14T05:56:38;7.88;;;6.50;;
11677;SDS011;5895;41.950;24.372;2022-11-14T05:59:06;9.57;;;7.40;;
11677;SDS011;5895;41.950;24.372;2022-11-14T06:01:33;6.38;;;5.78;;
11677;SDS011;5895;41.950;24.372;2022-11-14T06:04:01;8.15;;;6.78;;
11677;SDS011;5895;41.950;24.372;2022-11-14T06:06:33;6.82;;;6.13;;
11677;SDS011;5895;41.950;24.372;2022-11-14T06:09:00;6.90;;;6.20;;
11677;SDS011;5895;41.950;24.372;2022-11-14T06:11:28;9.75;;;8.75;;
11677;SDS011;5895;41.950;24.372;2022-11-14T06:13:55;11.02;;;9.93;;
11677;SDS011;5895;41.950;24.372;2022-11-14T06:16:23;10.35;;;9.20;;
11677;SDS011;5895;41.950;24.372;2022-11-14T06:18:51;9.25;;;7.90;;
11677;SDS011;5895;41.950;24.372;2022-11-14T06:21:19;7.63;;;6.78;;
11677;SDS011;5895;41.950;24.372;2022-11-14T06:23:49;6.35;;;5.72;;
11677;SDS011;5895;41.950;24.372;2022-11-14T06:26:19;6.03;;;5.43;;
11677;SDS011;5895;41.950;24.372;2022-11-14T06:28:47;6.38;;;5.80;;
11677;SDS011;5895;41.950;24.372;2022-11-14T06:31:16;7.03;;;6.30;;
11677;SDS011;5895;41.950;24.372;2022-11-14T06:33:44;7.03;;;6.10;;
11677;SDS011;5895;41.950;24.372;2022-11-14T06:36:12;8.23;;;6.18;;
11677;SDS011;5895;41.950;24.372;2022-11-14T06:38:39;9.32;;;8.20;;
11677;SDS011;5895;41.950;24.372;2022-11-14T06:41:09;10.48;;;9.23;;
11677;SDS011;5895;41.950;24.372;2022-11-14T06:43:38;9.45;;;8.50;;
11677;SDS011;5895;41.950;24.372;2022-11-14T06:46:07;10.13;;;7.90;;
11677;SDS011;5895;41.950;24.372;2022-11-14T06:48:36;8.85;;;7.95;;
11677;SDS011;5895;41.950;24.372;2022-11-14T06:51:04;8.60;;;7.50;;
11677;SDS011;5895;41.950;24.372;2022-11-14T06:53:33;9.32;;;7.90;;
11677;SDS011;5895;41.950;24.372;2022-11-14T06:56:02;7.70;;;7.00;;
11677;SDS011;5895;41.950;24.372;2022-11-14T06:58:34;7.18;;;6.47;;
11677;SDS011;5895;41.950;24.372;2022-11-14T07:01:03;9.18;;;8.27;;
11677;SDS011;5895;41.950;24.372;2022-11-14T07:03:31;15.70;;;14.02;;
11677;SDS011;5895;41.950;24.372;2022-11-14T07:05:58;16.20;;;14.55;;
11677;SDS011;5895;41.950;24.372;2022-11-14T07:08:27;16.85;;;15.15;;
11677;SDS011;5895;41.950;24.372;2022-11-14T07:10:59;13.15;;;11.77;;
11677;SDS011;5895;41.950;24.372;2022-11-14T07:13:28;11.65;;;10.55;;
11677;SDS011;5895;41.950;24.372;2022-11-14T07:15:57;21.77;;;19.58;;
11677;SDS011;5895;41.950;24.372;2022-11-14T07:18:24;19.67;;;17.70;;
11677;SDS011;5895;41.950;24.372;2022-11-14T07:20:56;19.15;;;17.25;;
11677;SDS011;5895;41.950;24.372;2022-11-14T07:23:24;16.15;;;14.50;;
11677;SDS011;5895;41.950;24.372;2022-11-14T07:25:53;20.35;;;18.30;;
11677;SDS011;5895;41.950;24.372;2022-11-14T07:28:20;19.85;;;17.75;;
11677;SDS011;5895;41.950;24.372;2022-11-14T07:30:47;15.85;;;14.20;;
11677;SDS011;5895;41.950;24.372;2022-11-14T07:33:16;18.30;;;16.35;;
11677;SDS011;5895;41.950;24.372;2022-11-14T07:35:44;17.45;;;15.75;;
11677;SDS011;5895;41.950;24.372;2022-11-14T07:38:11;15.40;;;13.90;;
11677;SDS011;5895;41.950;24.372;2022-11-14T07:40:39;5.30;;;4.80;;
11677;SDS011;5895;41.950;24.372;2022-11-14T07:43:06;4.10;;;3.38;;
11677;SDS011;5895;41.950;24.372;2022-11-14T07:45:34;4.32;;;3.92;;
11677;SDS011;5895;41.950;24.372;2022-11-14T07:48:01;6.05;;;3.30;;
11677;SDS011;5895;41.950;24.372;2022-11-14T07:50:30;4.75;;;4.35;;
11677;SDS011;5895;41.950;24.372;2022-11-14T07:52:57;4.07;;;3.60;;
11677;SDS011;5895;41.950;24.372;2022-11-14T07:55:25;3.75;;;3.45;;
11677;SDS011;5895;41.950;24.372;2022-11-14T07:57:52;4.00;;;3.70;;
11677;SDS011;5895;41.950;24.372;2022-11-14T08:00:20;4.00;;;3.47;;
11677;SDS011;5895;41.950;24.372;2022-11-14T08:02:48;3.50;;;3.20;;
11677;SDS011;5895;41.950;24.372;2022-11-14T08:05:15;2.92;;;2.72;;
11677;SDS011;5895;41.950;24.372;2022-11-14T08:07:45;3.15;;;2.95;;
11677;SDS011;5895;41.950;24.372;2022-11-14T08:10:13;3.00;;;2.80;;
11677;SDS011;5895;41.950;24.372;2022-11-14T08:12:42;4.60;;;4.20;;
11677;SDS011;5895;41.950;24.372;2022-11-14T08:15:10;6.85;;;5.20;;
11677;SDS011;5895;41.950;24.372;2022-11-14T08:17:39;12.65;;;10.00;;
11677;SDS011;5895;41.950;24.372;2022-11-14T08:20:07;5.28;;;4.78;;
11677;SDS011;5895;41.950;24.372;2022-11-14T08:22:36;4.10;;;3.70;;
11677;SDS011;5895;41.950;24.372;2022-11-14T08:25:05;4.57;;;3.13;;
11677;SDS011;5895;41.950;24.372;2022-11-14T08:27:33;2.65;;;2.42;;
11677;SDS011;5895;41.950;24.372;2022-11-14T08:30:01;2.58;;;2.35;;
11677;SDS011;5895;41.950;24.372;2022-11-14T08:32:28;4.32;;;3.20;;
11677;SDS011;5895;41.950;24.372;2022-11-14T08:34:56;4.60;;;4.20;;
11677;SDS011;5895;41.950;24.372;2022-11-14T08:37:23;6.20;;;5.38;;
11677;SDS011;5895;41.950;24.372;2022-11-14T08:39:50;10.23;;;8.45;;
11677;SDS011;5895;41.950;24.372;2022-11-14T08:42:19;7.03;;;5.38;;
11677;SDS011;5895;41.950;24.372;2022-11-14T08:44:47;5.20;;;4.70;;
11677;SDS011;5895;41.950;24.372;2022-11-14T08:47:14;4.00;;;3.60;;
11677;SDS011;5895;41.950;24.372;2022-11-14T08:49:42;11.38;;;8.63;;
11677;SDS011;5895;41.950;24.372;2022-11-14T08:52:10;9.73;;;6.25;;
11677;SDS011;5895;41.950;24.372;2022-11-14T08:54:37;7.72;;;6.07;;
11677;SDS011;5895;41.950;24.372;2022-11-14T08:57:05;8.40;;;6.75;;
11677;SDS011;5895;41.950;24.372;2022-11-14T08:59:34;7.68;;;6.45;;
11677;SDS011;5895;41.950;24.372;2022-11-14T09:02:01;6.88;;;6.18;;
11677;SDS011;5895;41.950;24.372;2022-11-14T09:04:28;8.32;;;7.13;;
11677;SDS011;5895;41.950;24.372;2022-11-14T09:06:56;7.10;;;6.40;;
11677;SDS011;5895;41.950;24.372;2022-11-14T09:09:24;4.32;;;3.92;;
11677;SDS011;5895;41.950;24.372;2022-11-14T09:11:51;3.50;;;3.00;;
11677;SDS011;5895;41.950;24.372;2022-11-14T09:14:19;3.22;;;2.92;;
11677;SDS011;5895;41.950;24.372;2022-11-14T09:16:48;2.88;;;2.50;;
11677;SDS011;5895;41.950;24.372;2022-11-14T09:19:15;2.78;;;2.58;;
11677;SDS011;5895;41.950;24.372;2022-11-14T09:21:43;3.20;;;2.60;;
11677;SDS011;5895;41.950;24.372;2022-11-14T09:24:10;2.83;;;2.60;;
11677;SDS011;5895;41.950;24.372;2022-11-14T09:26:38;2.63;;;2.42;;
11677;SDS011;5895;41.950;24.372;2022-11-14T09:29:05;2.45;;;2.25;;
11677;SDS011;5895;41.950;24.372;2022-11-14T09:31:33;2.80;;;2.60;;
11677;SDS011;5895;41.950;24.372;2022-11-14T09:34:02;2.70;;;2.50;;
11677;SDS011;5895;41.950;24.372;2022-11-14T09:36:29;2.50;;;2.30;;
11677;SDS011;5895;41.950;24.372;2022-11-14T09:38:56;4.18;;;2.33;;
11677;SDS011;5895;41.950;24.372;2022-11-14T09:41:25;3.28;;;2.47;;
11677;SDS011;5895;41.950;24.372;2022-11-14T09:44:04;2.65;;;2.45;;
11677;SDS011;5895;41.950;24.372;2022-11-14T09:46:49;2.67;;;2.45;;
11677;SDS011;5895;41.950;24.372;2022-11-14T09:49:28;3.58;;;2.83;;
11677;SDS011;5895;41.950;24.372;2022-11-14T09:52:02;3.15;;;2.90;;
11677;SDS011;5895;41.950;24.372;2022-11-14T09:54:38;3.22;;;2.92;;
11677;SDS011;5895;41.950;24.372;2022-11-14T09:57:13;3.83;;;3.30;;
11677;SDS011;5895;41.950;24.372;2022-11-14T09:59:42;3.67;;;3.38;;
11677;SDS011;5895;41.950;24.372;2022-11-14T10:02:15;5.57;;;4.93;;
11677;SDS011;5895;41.950;24.372;2022-11-14T10:04:58;5.60;;;3.47;;
11677;SDS011;5895;41.950;24.372;2022-11-14T10:07:37;3.33;;;2.70;;
11677;SDS011;5895;41.950;24.372;2022-11-14T10:10:20;3.38;;;3.08;;
11677;SDS011;5895;41.950;24.372;2022-11-14T10:13:02;3.92;;;2.40;;
11677;SDS011;5895;41.950;24.372;2022-11-14T10:15:35;3.28;;;2.97;;
11677;SDS011;5895;41.950;24.372;2022-11-14T10:18:10;3.40;;;3.10;;
11677;SDS011;5895;41.950;24.372;2022-11-14T10:20:49;4.13;;;3.72;;
11677;SDS011;5895;41.950;24.372;2022-11-14T10:23:25;3.50;;;3.17;;
11677;SDS011;5895;41.950;24.372;2022-11-14T10:26:06;3.45;;;3.15;;
11677;SDS011;5895;41.950;24.372;2022-11-14T10:28:48;4.10;;;3.67;;
11677;SDS011;5895;41.950;24.372;2022-11-14T10:31:30;5.20;;;4.70;;
11677;SDS011;5895;41.950;24.372;2022-11-14T10:34:08;3.92;;;3.55;;
11677;SDS011;5895;41.950;24.372;2022-11-14T10:36:46;4.32;;;3.40;;
11677;SDS011;5895;41.950;24.372;2022-11-14T10:39:22;3.92;;;3.50;;
11677;SDS011;5895;41.950;24.372;2022-11-14T10:41:56;3.55;;;3.25;;
11677;SDS011;5895;41.950;24.372;2022-11-14T10:44:29;3.28;;;2.97;;
11677;SDS011;5895;41.950;24.372;2022-11-14T10:47:01;4.28;;;3.60;;
11677;SDS011;5895;41.950;24.372;2022-11-14T10:49:33;4.57;;;3.17;;
11677;SDS011;5895;41.950;24.372;2022-11-14T10:52:05;3.63;;;3.10;;
11677;SDS011;5895;41.950;24.372;2022-11-14T10:54:38;4.75;;;3.63;;
11677;SDS011;5895;41.950;24.372;2022-11-14T10:57:13;4.72;;;3.97;;
11677;SDS011;5895;41.950;24.372;2022-11-14T10:59:44;4.38;;;3.58;;
11677;SDS011;5895;41.950;24.372;2022-11-14T11:02:13;3.40;;;3.10;;
11677;SDS011;5895;41.950;24.372;2022-11-14T11:04:41;2.90;;;2.70;;
11677;SDS011;5895;41.950;24.372;2022-11-14T11:07:21;2.92;;;2.72;;
11677;SDS011;5895;41.950;24.372;2022-11-14T11:10:15;4.18;;;3.35;;
11677;SDS011;5895;41.950;24.372;2022-11-14T11:13:04;3.08;;;2.78;;
11677;SDS011;5895;41.950;24.372;2022-11-14T11:15:37;3.20;;;2.90;;
11677;SDS011;5895;41.950;24.372;2022-11-14T11:18:21;3.08;;;2.85;;
11677;SDS011;5895;41.950;24.372;2022-11-14T11:21:00;3.22;;;2.92;;
11677;SDS011;5895;41.950;24.372;2022-11-14T11:23:30;3.30;;;3.00;;
11677;SDS011;5895;41.950;24.372;2022-11-14T11:25:59;4.38;;;3.40;;
11677;SDS011;5895;41.950;24.372;2022-11-14T11:28:32;3.35;;;3.05;;
11677;SDS011;5895;41.950;24.372;2022-11-14T11:31:01;3.35;;;3.00;;
11677;SDS011;5895;41.950;24.372;2022-11-14T11:33:30;3.30;;;3.00;;
11677;SDS011;5895;41.950;24.372;2022-11-14T11:35:59;3.10;;;2.80;;
11677;SDS011;5895;41.950;24.372;2022-11-14T11:38:29;2.78;;;2.50;;
11677;SDS011;5895;41.950;24.372;2022-11-14T11:41:01;2.80;;;2.60;;
11677;SDS011;5895;41.950;24.372;2022-11-14T11:43:37;2.72;;;2.30;;
11677;SDS011;5895;41.950;24.372;2022-11-14T11:46:11;3.70;;;3.30;;
11677;SDS011;5895;41.950;24.372;2022-11-14T11:48:42;4.25;;;3.13;;
11677;SDS011;5895;41.950;24.372;2022-11-14T11:51:15;3.50;;;2.90;;
11677;SDS011;5895;41.950;24.372;2022-11-14T11:53:49;2.80;;;2.58;;
11677;SDS011;5895;41.950;24.372;2022-11-14T11:56:23;3.33;;;3.03;;
11677;SDS011;5895;41.950;24.372;2022-11-14T11:58:56;4.07;;;3.00;;
11677;SDS011;5895;41.950;24.372;2022-11-14T12:01:30;3.17;;;2.92;;
11677;SDS011;5895;41.950;24.372;2022-11-14T12:03:58;3.88;;;3.50;;
11677;SDS011;5895;41.950;24.372;2022-11-14T12:06:28;3.22;;;2.92;;
11677;SDS011;5895;41.950;24.372;2022-11-14T12:09:11;4.82;;;4.40;;
11677;SDS011;5895;41.950;24.372;2022-11-14T12:11:44;9.82;;;8.20;;
11677;SDS011;5895;41.950;24.372;2022-11-14T12:14:35;7.10;;;6.07;;
11677;SDS011;5895;41.950;24.372;2022-11-14T12:26:57;3.40;;;2.75;;
11677;SDS011;5895;41.950;24.372;2022-11-14T12:29:45;3.38;;;3.08;;
11677;SDS011;5895;41.950;24.372;2022-11-14T12:32:25;2.92;;;2.70;;
11677;SDS011;5895;41.950;24.372;2022-11-14T12:34:57;2.80;;;2.60;;
11677;SDS011;5895;41.950;24.372;2022-11-14T12:37:27;5.32;;;2.83;;
11677;SDS011;5895;41.950;24.372;2022-11-14T12:39:59;3.40;;;3.10;;
11677;SDS011;5895;41.950;24.372;2022-11-14T12:42:30;2.45;;;2.25;;
11677;SDS011;5895;41.950;24.372;2022-11-14T12:44:58;2.95;;;2.58;;
11677;SDS011;5895;41.950;24.372;2022-11-14T12:47:25;2.65;;;2.45;;
11677;SDS011;5895;41.950;24.372;2022-11-14T12:50:01;2.65;;;2.42;;
11677;SDS011;5895;41.950;24.372;2022-11-14T12:52:48;2.25;;;2.05;;
11677;SDS011;5895;41.950;24.372;2022-11-14T12:58:31;2.20;;;2.00;;
11677;SDS011;5895;41.950;24.372;2022-11-14T13:01:19;2.28;;;2.17;;
11677;SDS011;5895;41.950;24.372;2022-11-14T13:04:05;3.60;;;2.00;;
11677;SDS011;5895;41.950;24.372;2022-11-14T13:06:45;3.10;;;2.80;;
11677;SDS011;5895;41.950;24.372;2022-11-14T13:09:34;2.60;;;2.40;;
11677;SDS011;5895;41.950;24.372;2022-11-14T13:12:24;3.38;;;3.08;;
11677;SDS011;5895;41.950;24.372;2022-11-14T13:15:23;3.35;;;3.05;;
11677;SDS011;5895;41.950;24.372;2022-11-14T13:18:24;3.85;;;3.35;;
11677;SDS011;5895;41.950;24.372;2022-11-14T13:21:16;3.50;;;3.00;;
11677;SDS011;5895;41.950;24.372;2022-11-14T13:24:03;4.72;;;2.80;;
11677;SDS011;5895;41.950;24.372;2022-11-14T13:26:38;3.20;;;2.90;;
11677;SDS011;5895;41.950;24.372;2022-11-14T13:35:12;3.80;;;3.40;;
11677;SDS011;5895;41.950;24.372;2022-11-14T13:37:59;3.72;;;3.42;;
11677;SDS011;5895;41.950;24.372;2022-11-14T13:40:40;3.45;;;3.10;;
11677;SDS011;5895;41.950;24.372;2022-11-14T13:43:16;2.75;;;2.55;;
11677;SDS011;5895;41.950;24.372;2022-11-14T13:45:56;2.42;;;2.20;;
11677;SDS011;5895;41.950;24.372;2022-11-14T13:48:41;2.45;;;2.30;;
11677;SDS011;5895;41.950;24.372;2022-11-14T13:51:22;2.85;;;2.60;;
11677;SDS011;5895;41.950;24.372;2022-11-14T13:53:52;5.05;;;3.05;;
11677;SDS011;5895;41.950;24.372;2022-11-14T13:56:24;4.65;;;4.13;;
11677;SDS011;5895;41.950;24.372;2022-11-14T13:59:03;6.93;;;5.60;;
11677;SDS011;5895;41.950;24.372;2022-11-14T14:02:02;5.78;;;5.00;;
11677;SDS011;5895;41.950;24.372;2022-11-14T14:04:45;4.90;;;3.95;;
11677;SDS011;5895;41.950;24.372;2022-11-14T14:07:25;5.18;;;4.68;;
11677;SDS011;5895;41.950;24.372;2022-11-14T14:10:04;6.28;;;4.82;;
11677;SDS011;5895;41.950;24.372;2022-11-14T14:12:45;5.07;;;4.57;;
11677;SDS011;5895;41.950;24.372;2022-11-14T14:15:26;5.43;;;4.45;;
11677;SDS011;5895;41.950;24.372;2022-11-14T14:18:02;4.30;;;3.90;;
11677;SDS011;5895;41.950;24.372;2022-11-14T14:20:39;5.88;;;4.07;;
11677;SDS011;5895;41.950;24.372;2022-11-14T14:23:17;5.25;;;3.60;;
11677;SDS011;5895;41.950;24.372;2022-11-14T14:25:58;6.07;;;4.10;;
11677;SDS011;5895;41.950;24.372;2022-11-14T14:28:36;7.38;;;6.32;;
11677;SDS011;5895;41.950;24.372;2022-11-14T14:31:13;6.10;;;5.38;;
11677;SDS011;5895;41.950;24.372;2022-11-14T14:33:44;4.03;;;3.63;;
11677;SDS011;5895;41.950;24.372;2022-11-14T14:36:18;2.92;;;2.72;;
11677;SDS011;5895;41.950;24.372;2022-11-14T14:38:49;7.97;;;6.35;;
11677;SDS011;5895;41.950;24.372;2022-11-14T14:41:18;6.05;;;5.07;;
11677;SDS011;5895;41.950;24.372;2022-11-14T14:43:50;4.35;;;3.95;;
11677;SDS011;5895;41.950;24.372;2022-11-14T14:46:27;4.07;;;3.78;;
11677;SDS011;5895;41.950;24.372;2022-11-14T14:48:56;5.47;;;4.97;;
11677;SDS011;5895;41.950;24.372;2022-11-14T14:51:29;8.93;;;7.70;;
11677;SDS011;5895;41.950;24.372;2022-11-14T14:54:00;7.82;;;7.13;;
11677;SDS011;5895;41.950;24.372;2022-11-14T14:56:27;16.13;;;14.45;;
11677;SDS011;5895;41.950;24.372;2022-11-14T14:58:55;24.80;;;22.08;;
11677;SDS011;5895;41.950;24.372;2022-11-14T15:01:23;18.10;;;16.05;;
11677;SDS011;5895;41.950;24.372;2022-11-14T15:03:59;18.40;;;14.73;;
11677;SDS011;5895;41.950;24.372;2022-11-14T15:06:31;15.30;;;13.13;;
11677;SDS011;5895;41.950;24.372;2022-11-14T15:09:07;12.52;;;11.07;;
11677;SDS011;5895;41.950;24.372;2022-11-14T15:11:38;13.88;;;12.40;;
11677;SDS011;5895;41.950;24.372;2022-11-14T15:14:09;12.82;;;11.52;;
11677;SDS011;5895;41.950;24.372;2022-11-14T15:16:41;13.30;;;12.00;;
11677;SDS011;5895;41.950;24.372;2022-11-14T15:19:11;13.48;;;12.07;;
11677;SDS011;5895;41.950;24.372;2022-11-14T15:21:41;25.00;;;22.27;;
11677;SDS011;5895;41.950;24.372;2022-11-14T15:24:14;18.20;;;15.27;;
11677;SDS011;5895;41.950;24.372;2022-11-14T15:26:44;11.27;;;9.85;;